Time;durP1;ratioP1;P1;durP2;ratioP2;P2;SDS_P1;SDS_P2;PMS_P1;PMS_P2;Temp;Humidity;BMP_temperature;BMP_pressure;BME280_temperature;BME280_humidity;BME280_pressure;Samples;Min_cycle;Max_cycle;Signal;HPM_P1;HPM_P2
2022/03/28 00:00:07;;;;;;;31.60;21.80;;;9.90;70.40;;;;;;5018418;28;20049;-89
2022/03/28 00:02:37;;;;;;;32.15;22.98;;;9.90;70.40;;;;;;5034573;28;20095;-91
2022/03/28 00:05:04;;;;;;;31.40;23.45;;;9.80;70.40;;;;;;5035534;28;20052;-89
2022/03/28 00:07:31;;;;;;;34.67;23.52;;;9.80;70.50;;;;;;5033862;28;20045;-91
2022/03/28 00:09:59;;;;;;;28.50;21.40;;;9.80;70.50;;;;;;5033389;28;20056;-90
2022/03/28 00:12:25;;;;;;;35.38;24.40;;;9.70;70.40;;;;;;5034942;28;20053;-89
2022/03/28 00:14:52;;;;;;;37.92;23.15;;;9.70;70.50;;;;;;5045765;28;20048;-90
2022/03/28 00:17:19;;;;;;;32.05;23.15;;;9.70;70.50;;;;;;5048002;28;20045;-90
2022/03/28 00:19:46;;;;;;;33.25;23.58;;;9.60;70.60;;;;;;5034994;28;20041;-89
2022/03/28 00:22:13;;;;;;;37.35;22.80;;;9.60;70.60;;;;;;5029159;28;20119;-89
2022/03/28 00:24:41;;;;;;;33.85;23.35;;;9.60;70.70;;;;;;5034175;28;20402;-90
2022/03/28 00:27:08;;;;;;;31.98;22.17;;;9.60;70.70;;;;;;5036383;28;20476;-88
2022/03/28 00:29:34;;;;;;;34.45;23.95;;;9.50;70.70;;;;;;5033383;28;20084;-90
2022/03/28 00:32:01;;;;;;;32.67;23.25;;;9.50;70.70;;;;;;5035991;28;20501;-90
2022/03/28 00:34:28;;;;;;;32.13;22.05;;;9.50;70.80;;;;;;5033932;28;20049;-89
2022/03/28 00:36:55;;;;;;;34.90;23.00;;;9.50;70.80;;;;;;5034830;28;20532;-90
2022/03/28 00:39:22;;;;;;;32.35;22.23;;;9.40;70.80;;;;;;5040019;28;20502;-90
2022/03/28 00:41:50;;;;;;;33.03;23.05;;;9.40;70.80;;;;;;5034859;28;20497;-90
2022/03/28 00:44:18;;;;;;;30.08;22.60;;;9.40;70.80;;;;;;5036833;28;20099;-90
2022/03/28 00:46:46;;;;;;;32.13;22.20;;;9.40;70.80;;;;;;5034010;28;20052;-89
2022/03/28 00:49:13;;;;;;;33.25;23.00;;;9.40;70.80;;;;;;5015649;28;20506;-90
2022/03/28 00:51:40;;;;;;;34.42;22.73;;;9.30;70.80;;;;;;5033041;28;20460;-90
2022/03/28 00:54:08;;;;;;;35.10;22.05;;;9.30;70.80;;;;;;5015572;28;20057;-90
2022/03/28 00:56:37;;;;;;;30.90;21.88;;;9.20;70.80;;;;;;5035742;28;20056;-89
2022/03/28 00:59:04;;;;;;;30.73;22.02;;;9.20;70.70;;;;;;5032673;28;20042;-89
2022/03/28 01:01:32;;;;;;;31.90;22.23;;;9.10;70.70;;;;;;5033658;28;20049;-89
2022/03/28 01:03:59;;;;;;;30.40;21.75;;;9.10;70.70;;;;;;5030732;28;20052;-89
2022/03/28 01:06:26;;;;;;;35.45;23.15;;;9.10;70.70;;;;;;5034943;28;20108;-90
2022/03/28 01:08:54;;;;;;;33.53;22.15;;;9.10;70.70;;;;;;5015304;28;20449;-90
2022/03/28 01:11:22;;;;;;;32.10;22.55;;;9.00;70.70;;;;;;5033186;28;20096;-89
2022/03/28 01:13:49;;;;;;;31.35;21.55;;;9.00;70.70;;;;;;5034758;28;20052;-90
2022/03/28 01:16:16;;;;;;;31.77;21.60;;;8.90;70.70;;;;;;5032810;28;20457;-89
2022/03/28 01:18:50;;;;;;;35.42;22.52;;;8.90;70.70;;;;;;5034650;28;20051;-89
2022/03/28 01:21:20;;;;;;;32.40;20.75;;;8.90;70.70;;;;;;5032981;28;20049;-90
2022/03/28 01:23:47;;;;;;;32.25;21.42;;;8.90;70.70;;;;;;5035175;28;20108;-89
2022/03/28 01:26:15;;;;;;;30.77;22.58;;;8.80;70.70;;;;;;5033309;28;20112;-89
2022/03/28 01:28:42;;;;;;;32.63;21.58;;;8.80;70.70;;;;;;5033386;28;20506;-89
2022/03/28 01:31:09;;;;;;;30.48;21.80;;;8.80;70.70;;;;;;5032388;28;20422;-89
2022/03/28 01:33:36;;;;;;;31.15;21.70;;;8.70;70.70;;;;;;5032728;28;20444;-89
2022/03/28 01:36:03;;;;;;;31.52;22.13;;;8.70;70.70;;;;;;5034254;28;20045;-88
2022/03/28 01:38:30;;;;;;;33.13;21.45;;;8.70;70.80;;;;;;5034523;28;20053;-90
2022/03/28 01:40:57;;;;;;;32.45;22.90;;;8.60;70.80;;;;;;5035918;28;20041;-90
2022/03/28 01:43:24;;;;;;;30.23;20.90;;;8.60;70.80;;;;;;5034883;28;20045;-88
2022/03/28 01:45:51;;;;;;;33.70;23.42;;;8.60;70.80;;;;;;5032410;28;20505;-88
2022/03/28 01:48:19;;;;;;;30.65;21.08;;;8.50;70.80;;;;;;5033010;28;20045;-90
2022/03/28 01:50:46;;;;;;;33.97;22.95;;;8.50;70.80;;;;;;5033693;28;20434;-89
2022/03/28 01:53:13;;;;;;;32.35;22.33;;;8.50;70.90;;;;;;5034601;28;20111;-90
2022/03/28 01:55:40;;;;;;;31.95;21.10;;;8.40;70.90;;;;;;5037347;28;20103;-89
2022/03/28 01:58:08;;;;;;;31.35;21.35;;;8.40;70.90;;;;;;5036063;28;20058;-89
2022/03/28 02:00:35;;;;;;;33.20;22.30;;;8.40;70.90;;;;;;5039119;28;20050;-90
2022/03/28 02:03:02;;;;;;;35.05;22.80;;;8.40;71.00;;;;;;5037983;28;20045;-88
2022/03/28 02:05:30;;;;;;;33.92;22.33;;;8.40;71.00;;;;;;5037939;28;20517;-89
2022/03/28 02:07:57;;;;;;;33.42;22.80;;;8.30;71.00;;;;;;5038075;28;20057;-89
2022/03/28 02:10:24;;;;;;;33.53;22.58;;;8.30;71.00;;;;;;5035706;28;20053;-88
2022/03/28 02:12:52;;;;;;;32.65;21.98;;;8.30;71.00;;;;;;5036499;28;20049;-89
2022/03/28 02:15:21;;;;;;;30.85;21.45;;;8.20;71.00;;;;;;5036554;28;20049;-89
2022/03/28 02:17:48;;;;;;;29.48;20.55;;;8.20;71.10;;;;;;5037679;28;20567;-89
2022/03/28 02:20:16;;;;;;;36.28;22.83;;;8.20;71.10;;;;;;5037186;28;20053;-89
2022/03/28 02:22:44;;;;;;;28.63;20.33;;;8.10;71.10;;;;;;5036815;28;20045;-90
2022/03/28 02:25:14;;;;;;;32.05;21.42;;;8.20;71.10;;;;;;5035393;28;20056;-89
2022/03/28 02:27:42;;;;;;;31.70;21.67;;;8.10;71.10;;;;;;5037930;28;20045;-89
2022/03/28 02:30:11;;;;;;;34.38;22.70;;;8.10;71.10;;;;;;5035901;28;20045;-88
2022/03/28 02:32:38;;;;;;;34.25;21.63;;;8.10;71.10;;;;;;5035604;28;20057;-90
2022/03/28 02:35:07;;;;;;;30.85;20.77;;;8.00;71.10;;;;;;5018716;28;20505;-90
2022/03/28 02:37:34;;;;;;;38.58;22.75;;;8.00;71.10;;;;;;5035574;28;20076;-89
2022/03/28 02:40:01;;;;;;;30.13;20.77;;;8.00;71.10;;;;;;5036939;28;20057;-91
2022/03/28 02:42:29;;;;;;;32.03;21.20;;;8.00;71.10;;;;;;5036000;28;20046;-89
2022/03/28 02:44:57;;;;;;;32.42;22.23;;;7.90;71.10;;;;;;5038162;28;20038;-89
2022/03/28 02:47:24;;;;;;;33.78;21.88;;;7.90;71.10;;;;;;5036967;28;20057;-89
2022/03/28 02:49:51;;;;;;;29.42;21.17;;;7.90;71.10;;;;;;5036997;28;20053;-89
2022/03/28 02:52:18;;;;;;;30.83;21.35;;;7.90;71.10;;;;;;5034909;28;20049;-89
2022/03/28 02:54:44;;;;;;;31.65;21.73;;;7.90;71.10;;;;;;5035371;28;20057;-90
2022/03/28 02:57:11;;;;;;;31.83;20.80;;;7.80;71.10;;;;;;5037040;28;20111;-89
2022/03/28 02:59:38;;;;;;;31.55;21.67;;;7.80;71.10;;;;;;5041399;28;20052;-89
2022/03/28 03:02:05;;;;;;;32.70;21.85;;;7.70;71.10;;;;;;5036069;28;20091;-89
2022/03/28 03:04:33;;;;;;;30.02;20.73;;;7.70;71.10;;;;;;5034835;28;20056;-91
2022/03/28 03:07:02;;;;;;;31.38;20.85;;;7.70;71.10;;;;;;5036452;28;20053;-88
2022/03/28 03:09:29;;;;;;;32.15;21.95;;;7.70;71.10;;;;;;5036965;28;20054;-88
2022/03/28 03:11:56;;;;;;;31.48;20.77;;;7.60;71.10;;;;;;5035613;28;20513;-89
2022/03/28 03:14:23;;;;;;;32.33;20.67;;;7.60;71.10;;;;;;5036740;28;20572;-89
2022/03/28 03:16:50;;;;;;;31.73;21.08;;;7.60;71.10;;;;;;5036612;28;20575;-88
2022/03/28 03:19:18;;;;;;;33.92;22.02;;;7.50;71.10;;;;;;5034348;28;20049;-89
2022/03/28 03:21:46;;;;;;;33.08;21.92;;;7.50;71.10;;;;;;5034913;28;20051;-89
2022/03/28 03:24:14;;;;;;;31.98;20.75;;;7.50;71.10;;;;;;5035176;28;20052;-89
2022/03/28 03:26:41;;;;;;;31.50;21.85;;;7.50;71.10;;;;;;5037294;28;20049;-89
2022/03/28 03:29:09;;;;;;;30.98;20.15;;;7.40;71.10;;;;;;5037474;28;20054;-89
2022/03/28 03:31:35;;;;;;;33.05;20.90;;;7.40;71.10;;;;;;5034047;28;20512;-88
2022/03/28 03:34:03;;;;;;;30.33;20.50;;;7.40;71.10;;;;;;5035501;28;20080;-89
2022/03/28 03:36:30;;;;;;;31.48;20.15;;;7.40;71.10;;;;;;5035276;28;20115;-89
2022/03/28 03:38:57;;;;;;;33.13;22.08;;;7.40;71.10;;;;;;5034655;28;20042;-90
2022/03/28 03:41:24;;;;;;;35.28;21.60;;;7.40;71.10;;;;;;5018627;28;20057;-89
2022/03/28 03:43:51;;;;;;;32.08;20.67;;;7.30;71.00;;;;;;5036303;28;20041;-88
2022/03/28 03:46:18;;;;;;;29.27;20.25;;;7.30;71.00;;;;;;5033514;28;20099;-89
2022/03/28 03:48:45;;;;;;;28.98;21.05;;;7.20;71.10;;;;;;5033828;28;20091;-89
2022/03/28 03:51:13;;;;;;;28.17;18.13;;;7.20;71.10;;;;;;5017560;28;20041;-90
2022/03/28 03:53:40;;;;;;;29.30;19.70;;;7.20;71.10;;;;;;5034451;28;20050;-89
2022/03/28 03:56:07;;;;;;;32.33;20.45;;;7.20;71.10;;;;;;5018514;28;20087;-89
2022/03/28 03:58:34;;;;;;;32.50;21.48;;;7.20;71.10;;;;;;5034444;28;20060;-88
2022/03/28 04:01:01;;;;;;;31.67;20.30;;;7.10;71.00;;;;;;5033420;28;20049;-89
2022/03/28 04:03:28;;;;;;;30.23;20.05;;;7.10;71.00;;;;;;5034574;28;20045;-89
2022/03/28 04:05:55;;;;;;;29.05;20.33;;;7.10;71.00;;;;;;5035383;28;20584;-89
2022/03/28 04:08:22;;;;;;;28.63;20.17;;;7.10;71.00;;;;;;5033720;28;20107;-88
2022/03/28 04:10:49;;;;;;;31.77;20.33;;;7.00;71.00;;;;;;5037172;28;20049;-89
2022/03/28 04:13:16;;;;;;;29.08;20.45;;;7.00;71.00;;;;;;5033435;28;20505;-89
2022/03/28 04:15:43;;;;;;;31.13;20.27;;;7.00;71.00;;;;;;5039732;28;20464;-89
2022/03/28 04:18:10;;;;;;;29.13;19.88;;;6.90;71.00;;;;;;5035555;28;20049;-88
2022/03/28 04:20:37;;;;;;;32.20;20.45;;;6.90;71.00;;;;;;5035310;28;20041;-88
2022/03/28 04:23:04;;;;;;;34.17;21.98;;;6.90;70.90;;;;;;5033901;28;20046;-89
2022/03/28 04:25:32;;;;;;;36.63;20.77;;;6.90;70.90;;;;;;5034108;28;20509;-89
2022/03/28 04:27:59;;;;;;;30.48;21.30;;;6.90;70.90;;;;;;5031281;28;20461;-89
2022/03/28 04:30:26;;;;;;;31.00;21.25;;;6.80;70.90;;;;;;5033332;28;20489;-88
2022/03/28 04:32:53;;;;;;;33.90;21.48;;;6.80;71.00;;;;;;5044105;28;20055;-89
2022/03/28 04:35:20;;;;;;;32.75;21.13;;;6.80;71.00;;;;;;5045235;28;20476;-89
2022/03/28 04:37:47;;;;;;;32.35;20.10;;;6.70;71.00;;;;;;5033895;28;20049;-89
2022/03/28 04:40:17;;;;;;;28.17;19.10;;;6.70;71.00;;;;;;4996128;28;20046;-91
2022/03/28 04:42:45;;;;;;;29.52;20.38;;;6.70;71.00;;;;;;5034328;28;20053;-89
2022/03/28 04:45:12;;;;;;;32.00;21.10;;;6.70;71.00;;;;;;5033480;28;20046;-89
2022/03/28 04:47:41;;;;;;;30.08;20.15;;;6.70;71.00;;;;;;5033573;28;20517;-89
2022/03/28 04:50:08;;;;;;;33.17;20.98;;;6.70;71.00;;;;;;5034736;28;20056;-89
2022/03/28 04:52:36;;;;;;;30.98;20.50;;;6.60;71.00;;;;;;5032817;28;20084;-89
2022/03/28 04:55:04;;;;;;;33.65;21.50;;;6.60;71.00;;;;;;5016681;28;20119;-88
2022/03/28 04:57:32;;;;;;;32.03;21.73;;;6.60;71.00;;;;;;5048644;28;20056;-89
2022/03/28 05:00:00;;;;;;;35.80;22.75;;;6.60;71.00;;;;;;5039531;28;20079;-89
2022/03/28 05:02:27;;;;;;;35.15;22.52;;;6.60;71.00;;;;;;5033441;28;20053;-89
2022/03/28 05:04:54;;;;;;;37.20;22.20;;;6.50;71.00;;;;;;5034931;28;20049;-89
2022/03/28 05:07:25;;;;;;;32.95;21.92;;;6.50;71.10;;;;;;5032821;28;20057;-88
2022/03/28 05:09:53;;;;;;;37.47;23.38;;;6.50;71.10;;;;;;5038311;28;20583;-89
2022/03/28 05:12:20;;;;;;;39.78;22.20;;;6.50;71.10;;;;;;5047753;28;20082;-90
2022/03/28 05:14:48;;;;;;;37.67;23.60;;;6.40;71.20;;;;;;5042963;28;20501;-89
2022/03/28 05:17:19;;;;;;;36.67;23.33;;;6.40;71.20;;;;;;5033333;28;20050;-89
2022/03/28 05:19:45;;;;;;;41.58;24.88;;;6.40;71.20;;;;;;5019001;28;20095;-89
2022/03/28 05:22:12;;;;;;;38.30;24.55;;;6.40;71.30;;;;;;5032408;28;20053;-89
2022/03/28 05:24:40;;;;;;;42.20;24.88;;;6.40;71.30;;;;;;5033042;28;20261;-89
2022/03/28 05:27:07;;;;;;;38.88;24.92;;;6.40;71.40;;;;;;5034127;28;20046;-89
2022/03/28 05:29:34;;;;;;;43.28;26.02;;;6.40;71.40;;;;;;5041736;28;20108;-89
2022/03/28 05:32:04;;;;;;;37.17;24.48;;;6.40;71.40;;;;;;5037107;28;20060;-89
2022/03/28 05:34:32;;;;;;;42.67;25.80;;;6.40;71.50;;;;;;5037461;28;20077;-89
2022/03/28 05:37:00;;;;;;;40.03;25.45;;;6.40;71.50;;;;;;5038202;28;20498;-90
2022/03/28 05:39:28;;;;;;;43.60;26.42;;;6.40;71.60;;;;;;5037085;28;20049;-89
2022/03/28 05:41:58;;;;;;;46.17;27.95;;;6.30;71.60;;;;;;5042697;28;20115;-90
2022/03/28 05:44:26;;;;;;;42.67;24.80;;;6.30;71.60;;;;;;5039576;28;20084;-90
2022/03/28 05:46:54;;;;;;;44.15;26.75;;;6.30;71.60;;;;;;5037082;28;20111;-90
2022/03/28 05:49:24;;;;;;;43.72;25.80;;;6.30;71.70;;;;;;5035986;28;20133;-89
2022/03/28 05:51:54;;;;;;;45.63;26.42;;;6.30;71.70;;;;;;5041922;28;20060;-90
2022/03/28 05:54:21;;;;;;;44.30;26.15;;;6.30;71.80;;;;;;5042802;28;20053;-89
2022/03/28 05:56:49;;;;;;;41.78;25.15;;;6.30;71.80;;;;;;5035677;28;20080;-90
2022/03/28 05:59:16;;;;;;;47.33;26.95;;;6.30;71.80;;;;;;5036559;28;20049;-90
2022/03/28 06:01:43;;;;;;;39.17;24.88;;;6.20;71.80;;;;;;5037487;28;20103;-90
2022/03/28 06:04:10;;;;;;;48.58;25.02;;;6.20;71.80;;;;;;5056003;28;20056;-91
2022/03/28 06:06:37;;;;;;;42.28;24.77;;;6.20;71.90;;;;;;5037796;28;20095;-89
2022/03/28 06:09:04;;;;;;;40.67;25.75;;;6.20;71.90;;;;;;5038818;28;20163;-89
2022/03/28 06:11:31;;;;;;;45.90;26.90;;;6.20;71.90;;;;;;5035917;28;20394;-90
2022/03/28 06:13:58;;;;;;;43.30;25.08;;;6.20;71.90;;;;;;5036455;28;20041;-90
2022/03/28 06:16:25;;;;;;;40.22;24.77;;;6.20;71.90;;;;;;5035677;28;20053;-88
2022/03/28 06:18:53;;;;;;;45.50;26.13;;;6.20;72.00;;;;;;5035962;28;20128;-89
2022/03/28 06:21:20;;;;;;;47.72;28.05;;;6.20;72.00;;;;;;5036369;28;20041;-93
2022/03/28 06:23:49;;;;;;;40.22;25.38;;;6.10;72.00;;;;;;5037691;28;20064;-88
2022/03/28 06:26:17;;;;;;;40.67;26.05;;;6.10;72.00;;;;;;5035971;28;20052;-88
2022/03/28 06:28:46;;;;;;;42.05;25.73;;;6.10;72.10;;;;;;5036103;28;20114;-89
2022/03/28 06:31:15;;;;;;;41.70;26.40;;;6.10;72.10;;;;;;5030957;28;20050;-90
2022/03/28 06:33:42;;;;;;;44.97;26.95;;;6.10;72.10;;;;;;5037427;28;20513;-89
2022/03/28 06:36:09;;;;;;;43.03;27.55;;;6.10;72.20;;;;;;5035797;28;20051;-89
2022/03/28 06:38:36;;;;;;;42.17;27.00;;;6.10;72.20;;;;;;5035857;28;20502;-89
2022/03/28 06:41:04;;;;;;;45.85;27.33;;;6.10;72.20;;;;;;5017482;28;20042;-90
2022/03/28 06:43:31;;;;;;;45.13;26.20;;;6.10;72.30;;;;;;5035982;28;20060;-89
2022/03/28 06:45:58;;;;;;;43.53;25.48;;;6.10;72.30;;;;;;5034667;28;20123;-90
2022/03/28 06:48:26;;;;;;;43.85;26.40;;;6.10;72.40;;;;;;5035580;28;20079;-90
2022/03/28 06:51:01;;;;;;;43.90;26.42;;;6.10;72.40;;;;;;5035326;28;20628;-91
2022/03/28 06:53:29;;;;;;;38.80;26.10;;;6.20;72.50;;;;;;5035345;28;20053;-90
2022/03/28 06:55:56;;;;;;;42.53;26.33;;;6.10;72.50;;;;;;5034977;28;20045;-90
2022/03/28 06:58:23;;;;;;;42.30;25.77;;;6.10;72.60;;;;;;5034378;28;20061;-90
2022/03/28 07:00:51;;;;;;;40.45;24.60;;;6.10;72.60;;;;;;5035717;28;20053;-91
2022/03/28 07:03:18;;;;;;;37.80;24.45;;;6.20;72.70;;;;;;5035253;28;20037;-90
2022/03/28 07:05:45;;;;;;;41.42;25.20;;;6.20;72.70;;;;;;5035177;28;20045;-91
2022/03/28 07:08:14;;;;;;;38.25;24.65;;;6.20;72.80;;;;;;5035355;28;20529;-90
2022/03/28 07:10:41;;;;;;;40.30;24.25;;;6.20;72.90;;;;;;5017348;28;20107;-90
2022/03/28 07:13:08;;;;;;;40.75;23.85;;;6.20;72.90;;;;;;5034520;28;20099;-89
2022/03/28 07:15:35;;;;;;;35.45;23.08;;;6.30;73.00;;;;;;5035609;28;20410;-90
2022/03/28 07:18:05;;;;;;;32.78;23.58;;;6.40;73.10;;;;;;5035857;28;20053;-90
2022/03/28 07:20:33;;;;;;;34.80;22.88;;;6.40;73.20;;;;;;5035390;28;20077;-91
2022/03/28 07:23:00;;;;;;;36.13;24.08;;;6.40;73.30;;;;;;5035024;28;20045;-89
2022/03/28 07:25:28;;;;;;;38.05;23.73;;;6.40;73.40;;;;;;5034885;28;20052;-91
2022/03/28 07:27:56;;;;;;;34.50;22.88;;;6.50;73.50;;;;;;5034573;28;20053;-91
2022/03/28 07:30:24;;;;;;;34.25;21.92;;;6.50;73.60;;;;;;5051111;28;20102;-91
2022/03/28 07:32:52;;;;;;;32.90;22.30;;;6.60;73.60;;;;;;5041851;28;20567;-91
2022/03/28 07:35:21;;;;;;;34.03;23.55;;;6.60;73.70;;;;;;5030482;28;20092;-90
2022/03/28 07:37:49;;;;;;;32.53;21.73;;;6.70;73.80;;;;;;5037582;28;20044;-91
2022/03/28 07:40:17;;;;;;;32.80;21.90;;;6.70;73.80;;;;;;5034615;28;20045;-90
2022/03/28 07:42:44;;;;;;;33.88;22.40;;;6.70;73.80;;;;;;5034364;28;20054;-91
2022/03/28 07:45:14;;;;;;;30.85;21.90;;;6.80;73.90;;;;;;5034152;28;20045;-90
2022/03/28 07:47:42;;;;;;;32.30;22.15;;;6.90;74.00;;;;;;5035905;28;20120;-91
2022/03/28 07:50:10;;;;;;;31.60;22.05;;;6.90;74.10;;;;;;5039999;28;20048;-91
2022/03/28 07:52:37;;;;;;;32.05;21.63;;;6.90;74.30;;;;;;5017157;28;20119;-90
2022/03/28 07:55:06;;;;;;;31.02;21.70;;;7.00;74.40;;;;;;5054466;28;20440;-90
2022/03/28 07:57:35;;;;;;;30.02;21.70;;;7.00;74.60;;;;;;5029888;28;20049;-91
2022/03/28 08:00:06;;;;;;;33.95;21.70;;;7.10;74.70;;;;;;5035928;28;20046;-90
2022/03/28 08:02:51;;;;;;;30.40;20.85;;;7.20;74.80;;;;;;5034065;28;20073;-90
2022/03/28 08:05:19;;;;;;;34.88;21.65;;;7.30;74.80;;;;;;5036837;28;20057;-91
2022/03/28 08:07:50;;;;;;;33.75;22.35;;;7.30;74.90;;;;;;5034246;28;20049;-90
2022/03/28 08:10:17;;;;;;;35.05;23.52;;;7.40;75.00;;;;;;5033572;28;20099;-90
2022/03/28 08:12:45;;;;;;;31.05;22.08;;;7.40;75.10;;;;;;5033806;28;20046;-91
2022/03/28 08:15:13;;;;;;;29.60;21.55;;;7.50;75.20;;;;;;5036973;28;20115;-91
2022/03/28 08:17:41;;;;;;;32.72;21.83;;;7.60;75.30;;;;;;5034329;28;20049;-90
2022/03/28 08:20:10;;;;;;;33.65;24.10;;;7.70;75.50;;;;;;5033512;28;20053;-91
2022/03/28 08:22:46;;;;;;;34.72;23.83;;;7.80;75.60;;;;;;5034549;28;20057;-90
2022/03/28 08:25:13;;;;;;;32.83;23.10;;;7.90;75.70;;;;;;5029042;28;20421;-91
2022/03/28 08:27:41;;;;;;;32.63;23.15;;;8.00;75.70;;;;;;5034269;28;20423;-91
2022/03/28 08:30:09;;;;;;;33.42;22.67;;;8.20;75.80;;;;;;5032856;28;20571;-90
2022/03/28 08:32:37;;;;;;;34.65;22.73;;;8.30;75.80;;;;;;5035005;28;20053;-90
2022/03/28 08:35:05;;;;;;;34.40;24.33;;;8.40;75.90;;;;;;5033110;28;20041;-91
2022/03/28 08:37:33;;;;;;;34.72;23.33;;;8.40;75.90;;;;;;5033379;28;20049;-90
2022/03/28 08:40:00;;;;;;;35.72;24.05;;;8.60;76.00;;;;;;5015997;28;20046;-90
2022/03/28 08:42:27;;;;;;;35.58;24.50;;;8.70;76.00;;;;;;5033565;28;20049;-91
2022/03/28 08:44:54;;;;;;;40.97;25.13;;;8.90;75.90;;;;;;5045624;28;20493;-93
2022/03/28 08:47:23;;;;;;;36.38;23.80;;;9.00;75.90;;;;;;5052442;28;20091;-91
2022/03/28 08:49:52;;;;;;;35.03;23.15;;;9.10;75.90;;;;;;5035556;28;20045;-91
2022/03/28 08:52:20;;;;;;;37.88;23.92;;;9.20;75.80;;;;;;5033216;28;20576;-93
2022/03/28 08:54:48;;;;;;;36.25;24.73;;;9.30;75.80;;;;;;5033164;28;20103;-91
2022/03/28 08:57:16;;;;;;;36.15;24.67;;;9.50;75.80;;;;;;5052175;28;20076;-91
2022/03/28 08:59:43;;;;;;;34.72;23.80;;;9.60;75.70;;;;;;5043090;28;20053;-93
2022/03/28 09:02:31;;;;;;;37.25;25.45;;;9.70;75.70;;;;;;5016305;28;20046;-92
2022/03/28 09:04:59;;;;;;;35.15;24.52;;;9.90;75.70;;;;;;5016397;28;20425;-92
2022/03/28 09:07:28;;;;;;;33.17;23.60;;;10.00;75.60;;;;;;5033078;28;20056;-93
2022/03/28 09:09:59;;;;;;;38.03;25.42;;;10.10;75.50;;;;;;5033078;28;20060;-92
2022/03/28 09:12:27;;;;;;;38.58;24.50;;;10.30;75.60;;;;;;5033374;28;20060;-92
2022/03/28 09:14:57;;;;;;;43.22;26.60;;;10.40;75.60;;;;;;5033450;28;20453;-92
2022/03/28 09:17:25;;;;;;;41.58;26.33;;;10.50;75.60;;;;;;5033426;28;20081;-92
2022/03/28 09:20:03;;;;;;;39.17;24.95;;;10.60;75.50;;;;;;5033367;28;20111;-92
2022/03/28 09:22:41;;;;;;;44.47;27.40;;;10.80;75.60;;;;;;5033636;28;20521;-93
2022/03/28 09:25:12;;;;;;;40.88;25.52;;;10.90;75.50;;;;;;5032884;28;20076;-90
2022/03/28 09:27:41;;;;;;;44.35;26.88;;;11.00;75.40;;;;;;5033622;28;20111;-93
2022/03/28 09:30:15;;;;;;;37.05;25.60;;;11.20;75.30;;;;;;5033605;28;20053;-91
2022/03/28 09:32:52;;;;;;;41.10;25.65;;;11.30;75.20;;;;;;5033442;28;20128;-91
2022/03/28 09:35:20;;;;;;;42.85;26.55;;;11.40;75.10;;;;;;5033078;28;20425;-91
2022/03/28 09:38:05;;;;;;;43.22;26.88;;;11.60;75.00;;;;;;5032955;28;20046;-91
2022/03/28 09:40:45;;;;;;;43.97;26.70;;;11.80;74.90;;;;;;5029773;28;20136;-91
2022/03/28 09:43:23;;;;;;;43.83;27.95;;;11.90;74.80;;;;;;5037239;28;20497;-92
2022/03/28 09:45:53;;;;;;;41.58;26.52;;;12.00;74.70;;;;;;5020791;28;20091;-92
2022/03/28 09:48:24;;;;;;;42.05;25.48;;;12.20;74.50;;;;;;5047980;28;20049;-91
2022/03/28 09:51:01;;;;;;;39.95;25.63;;;12.40;74.40;;;;;;5051916;28;20045;-92
2022/03/28 09:53:31;;;;;;;41.88;26.98;;;12.40;74.20;;;;;;5042247;28;20620;-91
2022/03/28 09:56:04;;;;;;;43.95;27.10;;;12.60;74.10;;;;;;5035545;28;20045;-91
2022/03/28 09:58:32;;;;;;;37.10;25.42;;;12.70;73.90;;;;;;5032393;28;20057;-91
2022/03/28 10:01:00;;;;;;;44.03;26.13;;;12.90;73.70;;;;;;5032770;28;20053;-91
2022/03/28 10:03:35;;;;;;;42.50;25.70;;;12.90;73.60;;;;;;5031965;28;20061;-91
2022/03/28 10:06:04;;;;;;;41.92;25.83;;;13.10;73.30;;;;;;5046419;28;20041;-92
2022/03/28 10:08:33;;;;;;;47.65;27.40;;;13.20;73.10;;;;;;5042981;28;20136;-91
2022/03/28 10:11:01;;;;;;;45.88;27.00;;;13.40;72.90;;;;;;5036041;28;20099;-91
2022/03/28 10:13:30;;;;;;;41.88;25.42;;;13.50;72.60;;;;;;5032236;28;20053;-91
2022/03/28 10:15:58;;;;;;;39.47;25.60;;;13.60;72.40;;;;;;5015688;28;20049;-90
2022/03/28 10:18:34;;;;;;;39.10;25.38;;;13.70;72.10;;;;;;5035625;28;20049;-90
2022/03/28 10:21:07;;;;;;;38.90;25.17;;;13.90;71.80;;;;;;5037770;28;20140;-90
2022/03/28 10:24:08;;;;;;;37.40;24.17;;;14.00;71.50;;;;;;5036054;28;20441;-91
2022/03/28 10:26:56;;;;;;;44.72;25.30;;;14.10;71.20;;;;;;5035747;28;20068;-91
2022/03/28 10:29:32;;;;;;;39.72;23.90;;;14.20;70.70;;;;;;5027626;28;20057;-91
2022/03/28 10:32:01;;;;;;;36.97;23.20;;;14.40;70.40;;;;;;5022118;28;20037;-88
2022/03/28 10:34:52;;;;;;;39.58;23.73;;;14.50;70.00;;;;;;5035594;28;20060;-90
2022/03/28 10:37:45;;;;;;;33.35;22.60;;;14.60;69.70;;;;;;5015860;28;20085;-90
2022/03/28 10:40:31;;;;;;;36.13;22.90;;;14.70;69.40;;;;;;5017745;28;20508;-91
2022/03/28 10:43:11;;;;;;;35.28;21.85;;;14.80;69.00;;;;;;5015928;28;20406;-89
2022/03/28 10:45:49;;;;;;;29.77;19.38;;;14.90;68.70;;;;;;5020963;28;20058;-90
2022/03/28 10:48:33;;;;;;;28.38;18.00;;;15.00;68.30;;;;;;5020360;28;20053;-91
2022/03/28 10:51:07;;;;;;;31.33;19.75;;;15.10;68.10;;;;;;5019242;28;20041;-91
2022/03/28 10:53:40;;;;;;;29.45;18.42;;;15.20;67.70;;;;;;5035203;28;20075;-92
2022/03/28 10:56:14;;;;;;;31.65;19.27;;;15.30;67.50;;;;;;5038422;28;20061;-91
2022/03/28 10:58:56;;;;;;;28.48;18.83;;;15.40;67.20;;;;;;5031715;28;20521;-90
2022/03/28 11:01:37;;;;;;;26.58;17.08;;;15.40;66.90;;;;;;5012199;28;20092;-90
2022/03/28 11:04:16;;;;;;;26.77;16.23;;;15.60;66.60;;;;;;5014371;28;20057;-91
2022/03/28 11:06:44;;;;;;;26.98;15.98;;;15.70;66.30;;;;;;5018350;28;20418;-90
2022/03/28 11:09:12;;;;;;;25.23;15.05;;;15.80;66.00;;;;;;5017981;28;20041;-91
2022/03/28 11:12:04;;;;;;;29.48;17.38;;;15.90;65.70;;;;;;5014610;28;20054;-91
2022/03/28 11:14:51;;;;;;;24.27;15.20;;;15.90;65.30;;;;;;5015512;28;20053;-92
2022/03/28 11:17:30;;;;;;;22.45;13.65;;;16.00;64.90;;;;;;5015197;28;20060;-90
2022/03/28 11:20:02;;;;;;;21.20;13.25;;;16.10;64.50;;;;;;5001705;28;20494;-92
2022/03/28 11:22:52;;;;;;;20.55;12.82;;;16.20;64.10;;;;;;5015533;28;20461;-92
2022/03/28 11:25:39;;;;;;;19.08;11.80;;;16.30;63.60;;;;;;5011219;28;20054;-91
2022/03/28 11:28:06;;;;;;;18.00;11.05;;;16.40;63.20;;;;;;5013056;28;20058;-90
2022/03/28 11:30:45;;;;;;;20.85;11.95;;;16.40;62.90;;;;;;5015164;28;20131;-91
2022/03/28 11:33:20;;;;;;;17.98;11.25;;;16.40;62.40;;;;;;5015912;28;20060;-91
2022/03/28 11:35:52;;;;;;;18.45;10.77;;;16.60;62.10;;;;;;5017877;28;20502;-92
2022/03/28 11:38:20;;;;;;;16.25;10.35;;;16.60;61.80;;;;;;5018092;28;20045;-93
2022/03/28 11:40:48;;;;;;;19.92;10.77;;;16.70;61.50;;;;;;5014397;28;20053;-90
2022/03/28 11:43:16;;;;;;;19.92;10.82;;;16.70;61.10;;;;;;5009307;28;20053;-93
2022/03/28 11:45:49;;;;;;;18.58;10.57;;;16.80;60.80;;;;;;5031552;28;20042;-90
2022/03/28 11:48:18;;;;;;;20.20;11.93;;;16.80;60.40;;;;;;5019441;28;20049;-91
2022/03/28 11:50:47;;;;;;;17.13;10.50;;;16.90;60.20;;;;;;5018968;28;20489;-91
2022/03/28 11:53:18;;;;;;;15.40;9.30;;;16.90;60.00;;;;;;5014520;28;20080;-90
2022/03/28 11:55:53;;;;;;;16.83;10.30;;;17.00;59.70;;;;;;5014733;28;20057;-90
2022/03/28 11:58:32;;;;;;;16.33;10.07;;;17.00;59.50;;;;;;5001794;28;20057;-89
2022/03/28 12:01:10;;;;;;;17.08;10.38;;;17.10;59.30;;;;;;5031610;28;20061;-90
2022/03/28 12:03:47;;;;;;;15.85;10.05;;;17.20;59.20;;;;;;5033080;28;20046;-90
2022/03/28 12:06:29;;;;;;;16.75;10.40;;;17.30;58.90;;;;;;5035348;28;20136;-89
2022/03/28 12:08:57;;;;;;;17.17;10.40;;;17.30;58.80;;;;;;5016541;28;20041;-90
2022/03/28 12:11:26;;;;;;;19.38;10.70;;;17.40;58.60;;;;;;5033975;28;20049;-91
2022/03/28 12:13:54;;;;;;;17.27;10.55;;;17.40;58.50;;;;;;5035285;28;20056;-91
2022/03/28 12:16:22;;;;;;;18.73;10.73;;;17.50;58.30;;;;;;5033686;28;20453;-89
2022/03/28 12:18:51;;;;;;;17.77;9.90;;;17.50;58.20;;;;;;5035595;28;20064;-91
2022/03/28 12:21:19;;;;;;;18.08;10.32;;;17.60;58.00;;;;;;5033784;28;20076;-91
2022/03/28 12:23:47;;;;;;;18.65;10.68;;;17.60;57.80;;;;;;5034218;28;20045;-91
2022/03/28 12:26:14;;;;;;;17.92;10.57;;;17.80;57.70;;;;;;5034362;28;20046;-91
2022/03/28 12:28:45;;;;;;;18.08;10.27;;;17.80;57.50;;;;;;5016878;28;20057;-92
2022/03/28 12:31:13;;;;;;;18.30;10.63;;;17.80;57.30;;;;;;5016011;28;20050;-91
2022/03/28 12:33:43;;;;;;;17.05;10.10;;;17.90;57.20;;;;;;5017577;28;20103;-91
2022/03/28 12:36:24;;;;;;;19.40;10.40;;;17.90;57.00;;;;;;5033470;28;20045;-93
2022/03/28 12:39:06;;;;;;;18.67;10.50;;;17.90;56.70;;;;;;5033392;28;20510;-92
2022/03/28 12:41:46;;;;;;;17.23;11.27;;;18.00;56.50;;;;;;5012231;28;20057;-92
2022/03/28 12:44:15;;;;;;;19.00;11.00;;;18.10;56.30;;;;;;5033670;28;20054;-92